Londonderry, VT (05148)

1:43 PM EST on December 09, 2016 (GMT -0500)
"The Oak" Winhall Hollow Rd, South Londonderry, VT | | Change Station

Elev 1358 ft 43.21 °N, 72.84 °W | Updated 3 seconds ago

Mostly Cloudy
Mostly Cloudy
25.3 °F
Feels Like 25 °F
N
1.3
Wind Variable Wind from ESE
Gusts 4.9 mph

Today
High -- | Low -- °F
--% Chance of Precip.
Yesterday
High -- | Low -- °F
Precip. -- in
Pressure 30.01 in
Visibility 10.0 miles
Clouds Mostly Cloudy 4700 ft
Windchill 25 °F
Dew Point -0 °F
Humidity 32%
Rainfall 0.00 in
Snow Depth Not available.
7:11 AM 4:15 PM
Waxing Gibbous, 76% visible
METAR KVSF 091754Z AUTO 29013G24KT 10SM BKN047 M02/M14 A2998 RMK AO2 SLP160 T10221139 11022 21039 50001
Pressure 30.01 in
Visibility 10.0 miles
Clouds Mostly Cloudy 4700 ft
Windchill 25 °F
Dew Point -0 °F
Humidity 32%
Rainfall 0.00 in
Snow Depth Not available.
7:11 AM 4:15 PM
Waxing Gibbous, 76% visible
METAR KVSF 091754Z AUTO 29013G24KT 10SM BKN047 M02/M14 A2998 RMK AO2 SLP160 T10221139 11022 21039 50001

10-Day Weather Forecast

Almanac

Astronomy

Dec. 09, 2016 Rise Set
Actual Time
Civil Twilight
Nautical Twilight
Astronomical Twilight
Moon
Length of Visible Light
Length of Day
Tomorrow will be .
, % of the Moon is Illuminated

Today's Extremes

State Highs State Lows

Community

WunderPhotos

Upload Photos

1,956,499 photos uploaded!

WunderBlog® & News

Nearby

Air Quality

  Air Quality AQ Index Pollutant
Not available.

Snow Depth

Station Depth Elevation

Earthquake Activity

City Distance Mag. Time & Date
Minimum magnitude displayed is 2.5.

Coastal Water Temperatures

Place Temperature

Stations

Nearby Weather Stations

Station Location Temp. Windchill Dew Point Humidity Wind Precip. Elev Updated Type
                   

Watches & Warnings

There are currently no watches in effect.